createdAt,value
2019-03-30T00:00:36.403Z,9.94
2019-03-30T00:03:07.686Z,10.00
2019-03-30T00:05:39.011Z,10.01
2019-03-30T00:08:16.104Z,9.96
2019-03-30T00:10:48.241Z,9.94
2019-03-30T00:13:19.416Z,9.87
2019-03-30T00:15:50.551Z,9.84
2019-03-30T00:18:21.703Z,9.83
2019-03-30T00:20:52.977Z,9.83
2019-03-30T00:23:24.275Z,9.83
2019-03-30T00:25:55.385Z,9.86
2019-03-30T00:28:26.517Z,9.74
2019-03-30T00:30:57.628Z,9.65
2019-03-30T00:33:33.256Z,9.60
2019-03-30T00:36:04.445Z,9.53
2019-03-30T00:38:37.690Z,9.57
2019-03-30T00:41:18.048Z,9.56
2019-03-30T00:43:49.264Z,9.48
2019-03-30T00:46:20.470Z,9.52
2019-03-30T00:48:51.635Z,9.62
2019-03-30T00:51:22.739Z,9.53
2019-03-30T00:53:54.004Z,9.41
2019-03-30T00:56:26.109Z,9.37
2019-03-30T00:58:57.201Z,9.35
2019-03-30T01:01:28.325Z,9.31
2019-03-30T01:03:59.446Z,9.25
2019-03-30T01:06:30.699Z,9.29
2019-03-30T01:09:01.880Z,9.29
2019-03-30T01:11:33.159Z,9.26
2019-03-30T01:14:10.344Z,9.27
2019-03-30T01:16:42.006Z,9.14
2019-03-30T01:19:13.208Z,9.15
2019-03-30T01:21:45.415Z,9.10
2019-03-30T01:24:17.552Z,8.91
2019-03-30T01:26:48.843Z,8.82
2019-03-30T01:29:20.181Z,8.71
2019-03-30T01:31:51.289Z,8.74
2019-03-30T01:34:44.346Z,8.77
2019-03-30T01:37:15.776Z,8.79
2019-03-30T01:39:52.634Z,8.75
2019-03-30T01:42:23.679Z,8.70
2019-03-30T01:45:03.205Z,8.51
2019-03-30T01:47:34.303Z,8.60
2019-03-30T01:50:17.369Z,8.60
2019-03-30T01:52:42.990Z,8.48
2019-03-30T01:55:14.226Z,8.43
2019-03-30T01:57:45.367Z,8.43
2019-03-30T02:00:17.051Z,8.46
2019-03-30T02:02:48.195Z,8.34
2019-03-30T02:05:19.332Z,8.39
2019-03-30T02:07:50.435Z,8.33
2019-03-30T02:10:38.798Z,8.39
2019-03-30T02:13:10.271Z,8.39
2019-03-30T02:15:41.476Z,8.37
2019-03-30T02:18:12.681Z,8.33
2019-03-30T02:20:44.903Z,8.21
2019-03-30T02:23:16.489Z,8.22
2019-03-30T02:25:47.619Z,8.23
2019-03-30T02:28:18.833Z,8.19
2019-03-30T02:30:51.068Z,8.14
2019-03-30T02:33:30.572Z,8.18
2019-03-30T02:36:02.868Z,7.96
2019-03-30T02:38:34.003Z,7.94
2019-03-30T02:41:08.245Z,7.92
2019-03-30T02:43:39.450Z,7.90
2019-03-30T02:46:10.745Z,7.96
2019-03-30T02:48:42.152Z,7.92
2019-03-30T02:51:13.507Z,7.85
2019-03-30T02:53:44.840Z,7.88
2019-03-30T02:56:16.238Z,7.93
2019-03-30T02:58:48.736Z,7.94
2019-03-30T03:01:22.539Z,7.93
2019-03-30T03:03:57.531Z,7.85
2019-03-30T03:06:28.620Z,7.87
2019-03-30T03:08:59.869Z,7.81
2019-03-30T03:11:33.876Z,7.77
2019-03-30T03:14:07.035Z,7.81
2019-03-30T03:16:38.238Z,7.85
2019-03-30T03:19:09.509Z,7.86
2019-03-30T03:21:40.631Z,7.81
2019-03-30T03:24:12.752Z,7.88
2019-03-30T03:26:43.849Z,7.88
2019-03-30T03:29:15.103Z,7.80
2019-03-30T03:31:46.291Z,7.84
2019-03-30T03:34:18.574Z,7.87
2019-03-30T03:36:50.762Z,7.81
2019-03-30T03:39:21.982Z,7.77
2019-03-30T03:41:53.076Z,7.67
2019-03-30T03:44:25.208Z,7.70
2019-03-30T03:46:56.432Z,7.69
2019-03-30T03:49:27.737Z,7.75
2019-03-30T03:51:59.081Z,7.72
2019-03-30T03:54:30.749Z,7.67
2019-03-30T03:57:03.659Z,7.65
2019-03-30T03:59:40.708Z,7.76
2019-03-30T04:02:13.192Z,7.81
2019-03-30T04:04:47.564Z,7.82
2019-03-30T04:07:19.556Z,7.75
2019-03-30T04:09:52.524Z,7.76
2019-03-30T04:12:24.930Z,7.84
2019-03-30T04:15:01.630Z,7.86
2019-03-30T04:17:37.370Z,7.84
2019-03-30T04:20:15.933Z,7.82
2019-03-30T04:22:47.148Z,7.73
2019-03-30T04:25:18.303Z,7.65
2019-03-30T04:27:49.443Z,7.70
2019-03-30T04:30:20.598Z,7.66
2019-03-30T04:32:52.803Z,7.72
2019-03-30T04:35:23.985Z,7.69
2019-03-30T04:38:03.197Z,7.67
2019-03-30T04:40:34.721Z,7.53
2019-03-30T04:43:05.848Z,7.69
2019-03-30T04:45:37.058Z,7.74
2019-03-30T04:48:08.178Z,7.67
2019-03-30T04:50:39.315Z,7.69
2019-03-30T04:53:10.762Z,7.68
2019-03-30T04:55:42.180Z,7.72
2019-03-30T04:58:13.301Z,7.73
2019-03-30T05:00:45.521Z,7.63
2019-03-30T05:03:16.693Z,7.70
2019-03-30T05:05:47.932Z,7.79
2019-03-30T05:08:27.170Z,7.76
2019-03-30T05:10:58.357Z,7.67
2019-03-30T05:13:31.762Z,7.68
2019-03-30T05:16:02.977Z,7.80
2019-03-30T05:18:38.161Z,7.80
2019-03-30T05:21:09.358Z,7.69
2019-03-30T05:23:44.696Z,7.77
2019-03-30T05:26:16.904Z,7.65
2019-03-30T05:28:48.034Z,7.71
2019-03-30T05:31:21.262Z,7.74
2019-03-30T05:34:00.290Z,7.60
2019-03-30T05:36:33.519Z,7.73
2019-03-30T05:39:12.607Z,7.58
2019-03-30T05:41:43.867Z,7.58
2019-03-30T05:44:15.115Z,7.62
2019-03-30T05:46:46.244Z,7.69
2019-03-30T05:49:17.385Z,7.53
2019-03-30T05:51:48.600Z,7.63
2019-03-30T05:54:19.798Z,7.64
2019-03-30T05:56:50.987Z,7.62
2019-03-30T05:59:22.275Z,7.78
2019-03-30T06:01:53.447Z,7.85
2019-03-30T06:04:24.750Z,7.96
2019-03-30T06:06:55.992Z,8.01
2019-03-30T06:09:27.252Z,8.14
2019-03-30T06:11:59.373Z,8.38
2019-03-30T06:14:35.692Z,8.60
2019-03-30T06:17:06.927Z,8.84
2019-03-30T06:19:38.092Z,9.19
2019-03-30T06:22:09.274Z,9.49
2019-03-30T06:24:46.333Z,9.82
2019-03-30T06:27:18.521Z,10.12
2019-03-30T06:30:26.039Z,10.41
2019-03-30T06:32:59.100Z,10.65
2019-03-30T06:35:34.406Z,10.97
2019-03-30T06:38:05.669Z,11.18
2019-03-30T06:40:40.900Z,11.20
2019-03-30T06:43:12.153Z,11.18
2019-03-30T06:45:46.606Z,11.29
2019-03-30T06:48:22.102Z,11.47
2019-03-30T06:50:53.331Z,11.21
2019-03-30T06:53:25.574Z,11.11
2019-03-30T06:55:57.783Z,11.19
2019-03-30T06:58:30.763Z,11.35
2019-03-30T07:01:02.253Z,11.43
2019-03-30T07:03:35.504Z,11.38
2019-03-30T07:06:06.930Z,11.45
2019-03-30T07:08:39.030Z,11.65
2019-03-30T07:11:21.055Z,11.82
2019-03-30T07:13:45.161Z,11.91
2019-03-30T07:16:17.051Z,11.98
2019-03-30T07:18:48.883Z,11.99
2019-03-30T07:21:20.011Z,12.16
2019-03-30T07:23:57.242Z,12.26
2019-03-30T07:26:28.403Z,12.38
2019-03-30T07:28:59.628Z,12.65
2019-03-30T07:31:30.866Z,12.64
2019-03-30T07:34:02.021Z,12.72
2019-03-30T07:36:38.514Z,12.72
2019-03-30T07:39:09.760Z,12.93
2019-03-30T07:41:42.059Z,13.06
2019-03-30T07:44:16.432Z,13.02
2019-03-30T07:46:47.586Z,13.07
2019-03-30T07:49:18.778Z,13.27
2019-03-30T07:51:49.847Z,13.25
2019-03-30T07:54:21.504Z,13.29
2019-03-30T07:57:04.126Z,13.47
2019-03-30T07:59:28.550Z,13.50
2019-03-30T08:01:59.737Z,13.54
2019-03-30T08:04:47.055Z,13.72
2019-03-30T08:07:18.393Z,13.94
2019-03-30T08:09:49.531Z,13.99
2019-03-30T08:12:27.273Z,14.14
2019-03-30T08:14:58.530Z,14.27
2019-03-30T08:17:29.822Z,14.32
2019-03-30T08:20:02.049Z,14.37
2019-03-30T08:22:38.807Z,14.12
2019-03-30T08:25:10.072Z,14.12
2019-03-30T08:27:44.269Z,14.12
2019-03-30T08:30:16.135Z,14.29
2019-03-30T08:32:47.370Z,14.32
2019-03-30T08:35:18.640Z,14.44
2019-03-30T08:37:50.093Z,14.56
2019-03-30T08:40:21.300Z,14.42
2019-03-30T08:42:52.637Z,14.72
2019-03-30T08:45:24.910Z,14.70
2019-03-30T08:48:00.562Z,14.65
2019-03-30T08:50:37.626Z,14.87
2019-03-30T08:53:08.783Z,14.90
2019-03-30T08:55:39.955Z,15.09
2019-03-30T08:58:11.481Z,15.34
2019-03-30T09:00:43.503Z,15.58
2019-03-30T09:03:14.774Z,15.62
2019-03-30T09:05:46.986Z,15.86
2019-03-30T09:08:18.138Z,16.04
2019-03-30T09:10:49.231Z,16.18
2019-03-30T09:13:23.763Z,16.35
2019-03-30T09:15:56.992Z,16.23
2019-03-30T09:18:28.140Z,16.45
2019-03-30T09:21:00.332Z,16.22
2019-03-30T09:23:31.616Z,16.29
2019-03-30T09:26:03.740Z,16.36
2019-03-30T09:28:36.098Z,16.40
2019-03-30T09:31:07.283Z,16.50
2019-03-30T09:33:42.317Z,16.80
2019-03-30T09:36:15.553Z,16.68
2019-03-30T09:38:46.857Z,16.70
2019-03-30T09:41:23.933Z,16.75
2019-03-30T09:43:55.082Z,16.95
2019-03-30T09:46:27.235Z,16.99
2019-03-30T09:49:00.107Z,16.84
2019-03-30T09:51:32.386Z,17.11
2019-03-30T09:54:03.628Z,17.12
2019-03-30T09:56:34.780Z,17.43
2019-03-30T09:59:06.068Z,17.26
2019-03-30T10:01:41.308Z,17.09
2019-03-30T10:04:12.530Z,17.03
2019-03-30T10:06:44.756Z,17.29
2019-03-30T10:09:33.452Z,17.33
2019-03-30T10:12:04.694Z,17.36
2019-03-30T10:14:38.996Z,17.35
2019-03-30T10:17:15.329Z,17.39
2019-03-30T10:19:58.034Z,17.53
2019-03-30T10:22:24.269Z,17.57
2019-03-30T10:24:58.261Z,17.83
2019-03-30T10:27:29.337Z,17.78
2019-03-30T10:30:00.519Z,17.88
2019-03-30T10:32:31.773Z,17.59
2019-03-30T10:35:09.717Z,17.78
2019-03-30T10:37:41.167Z,18.09
2019-03-30T10:40:12.668Z,18.09
2019-03-30T10:42:43.838Z,18.09
2019-03-30T10:45:15.129Z,18.18
2019-03-30T10:47:46.400Z,18.27
2019-03-30T10:50:17.679Z,18.37
2019-03-30T10:52:48.946Z,18.55
2019-03-30T10:55:20.251Z,18.73
2019-03-30T10:57:58.801Z,18.73
2019-03-30T11:00:38.748Z,18.54
2019-03-30T11:03:09.894Z,18.33
2019-03-30T11:05:42.040Z,18.45
2019-03-30T11:08:14.288Z,18.52
2019-03-30T11:10:46.121Z,18.66
2019-03-30T11:13:17.251Z,18.73
2019-03-30T11:15:48.578Z,18.72
2019-03-30T11:18:26.067Z,18.78
2019-03-30T11:21:02.754Z,18.81
2019-03-30T11:23:33.943Z,18.69
2019-03-30T11:26:11.724Z,18.82
2019-03-30T11:28:55.480Z,19.01
2019-03-30T11:31:32.201Z,18.73
2019-03-30T11:34:13.431Z,18.85
2019-03-30T11:36:44.651Z,18.81
2019-03-30T11:39:40.278Z,18.99
2019-03-30T11:42:11.573Z,18.92
2019-03-30T11:44:42.693Z,19.07
2019-03-30T11:47:14.935Z,19.10
2019-03-30T11:49:46.136Z,19.44
2019-03-30T11:52:19.228Z,19.39
2019-03-30T11:54:50.379Z,19.40
2019-03-30T11:57:23.632Z,19.35
2019-03-30T11:59:55.831Z,19.43
2019-03-30T12:02:45.017Z,19.60
2019-03-30T12:05:19.958Z,19.81
2019-03-30T12:07:54.475Z,19.32
2019-03-30T12:10:26.710Z,19.59
2019-03-30T12:12:58.864Z,19.71
2019-03-30T12:15:30.103Z,19.75
2019-03-30T12:18:09.451Z,19.51
2019-03-30T12:20:40.733Z,19.68
2019-03-30T12:23:11.855Z,19.68
2019-03-30T12:25:44.007Z,19.70
2019-03-30T12:28:15.329Z,19.50
2019-03-30T12:30:46.605Z,19.53
2019-03-30T12:33:18.928Z,19.84
2019-03-30T12:35:50.081Z,20.04
2019-03-30T12:38:21.334Z,19.92
2019-03-30T12:40:53.107Z,19.51
2019-03-30T12:43:25.461Z,19.67
2019-03-30T12:45:59.472Z,19.48
2019-03-30T12:48:32.669Z,19.53
2019-03-30T12:51:06.536Z,19.58
2019-03-30T12:53:50.106Z,19.26
2019-03-30T12:56:17.693Z,19.16
2019-03-30T12:58:57.009Z,18.78
2019-03-30T13:01:31.191Z,18.85
2019-03-30T13:04:02.943Z,19.02
2019-03-30T13:06:44.659Z,19.23
2019-03-30T13:09:35.079Z,19.30
2019-03-30T13:12:08.901Z,19.23
2019-03-30T13:14:41.127Z,19.43
2019-03-30T13:17:14.535Z,19.17
2019-03-30T13:19:56.182Z,19.09
2019-03-30T13:22:34.258Z,19.08
2019-03-30T13:25:07.344Z,18.90
2019-03-30T13:27:40.951Z,18.96
2019-03-30T13:30:13.248Z,19.15
2019-03-30T13:32:45.963Z,19.27
2019-03-30T13:35:20.700Z,19.36
2019-03-30T13:37:53.770Z,19.45
2019-03-30T13:40:29.007Z,19.37
2019-03-30T13:43:00.326Z,19.45
2019-03-30T13:45:31.591Z,19.38
2019-03-30T13:48:05.041Z,19.34
2019-03-30T13:50:39.513Z,19.21
2019-03-30T13:53:12.651Z,19.16
2019-03-30T13:55:43.963Z,19.27
2019-03-30T13:58:15.336Z,19.17
2019-03-30T14:00:48.616Z,19.28
2019-03-30T14:03:21.799Z,19.21
2019-03-30T14:05:57.667Z,19.24
2019-03-30T14:08:30.049Z,19.21
2019-03-30T14:11:03.312Z,19.27
2019-03-30T14:13:40.704Z,19.23
2019-03-30T14:16:11.930Z,19.32
2019-03-30T14:18:45.107Z,19.17
2019-03-30T14:21:16.453Z,19.00
2019-03-30T14:23:47.587Z,18.92
2019-03-30T14:26:30.837Z,18.96
2019-03-30T14:29:02.420Z,18.96
2019-03-30T14:31:41.466Z,19.09
2019-03-30T14:34:18.272Z,19.14
2019-03-30T14:36:52.493Z,19.12
2019-03-30T14:39:23.827Z,19.16
2019-03-30T14:42:00.696Z,19.17
2019-03-30T14:44:33.095Z,19.03
2019-03-30T14:47:13.410Z,19.07
2019-03-30T14:49:46.586Z,19.05
2019-03-30T14:52:19.664Z,19.09
2019-03-30T14:54:58.624Z,19.08
2019-03-30T14:57:35.914Z,19.12
2019-03-30T15:00:08.103Z,18.92
2019-03-30T15:02:39.281Z,18.99
2019-03-30T15:05:10.541Z,19.03
2019-03-30T15:07:42.842Z,19.11
2019-03-30T15:10:14.142Z,18.95
2019-03-30T15:12:45.479Z,18.84
2019-03-30T15:15:18.099Z,18.85
2019-03-30T15:17:49.292Z,18.76
2019-03-30T15:20:25.538Z,18.83
2019-03-30T15:22:56.709Z,18.84
2019-03-30T15:25:27.907Z,18.85
2019-03-30T15:28:02.058Z,18.84
2019-03-30T15:30:35.275Z,18.92
2019-03-30T15:33:07.425Z,18.81
2019-03-30T15:35:42.397Z,18.73
2019-03-30T15:38:14.518Z,18.70
2019-03-30T15:40:45.923Z,18.78
2019-03-30T15:43:37.154Z,18.73
2019-03-30T15:45:59.649Z,18.61
2019-03-30T15:48:36.872Z,18.52
2019-03-30T15:51:08.201Z,18.57
2019-03-30T15:53:39.429Z,18.56
2019-03-30T15:56:43.273Z,18.54
2019-03-30T15:59:22.197Z,18.63
2019-03-30T16:06:22.249Z,18.79
2019-03-30T16:08:54.507Z,18.65
2019-03-30T16:11:32.941Z,18.59
2019-03-30T16:14:04.882Z,18.53
2019-03-30T16:16:56.125Z,18.48
2019-03-30T16:19:45.266Z,18.50
2019-03-30T16:22:18.608Z,18.46
2019-03-30T16:24:49.908Z,18.58
2019-03-30T16:27:28.917Z,18.40
2019-03-30T16:29:58.445Z,18.23
2019-03-30T16:32:33.863Z,18.10
2019-03-30T16:38:01.578Z,18.15
2019-03-30T16:40:40.847Z,18.09
2019-03-30T16:43:12.098Z,18.05
2019-03-30T16:45:43.520Z,17.97
2019-03-30T16:48:14.965Z,17.99
2019-03-30T16:50:46.249Z,17.98
2019-03-30T16:53:21.773Z,18.01
2019-03-30T16:55:53.055Z,17.96
2019-03-30T16:58:25.331Z,17.99
2019-03-30T17:00:57.195Z,17.91
2019-03-30T17:03:28.725Z,17.94
2019-03-30T17:06:03.955Z,17.95
2019-03-30T17:08:37.197Z,17.96
2019-03-30T17:11:09.052Z,17.93
2019-03-30T17:13:41.847Z,17.86
2019-03-30T17:16:13.027Z,17.85
2019-03-30T17:18:44.182Z,17.83
2019-03-30T17:21:15.381Z,17.79
2019-03-30T17:23:46.662Z,17.74
2019-03-30T17:26:18.985Z,17.77
2019-03-30T17:28:50.078Z,17.73
2019-03-30T17:31:26.569Z,17.67
2019-03-30T17:33:58.892Z,17.62
2019-03-30T17:36:30.262Z,17.60
2019-03-30T17:39:01.622Z,17.45
2019-03-30T17:41:36.701Z,17.46
2019-03-30T17:44:17.771Z,17.41
2019-03-30T17:46:48.892Z,17.39
2019-03-30T17:49:20.528Z,17.29
2019-03-30T17:51:59.779Z,17.28
2019-03-30T17:54:32.111Z,17.24
2019-03-30T17:57:03.564Z,17.26
2019-03-30T17:59:36.794Z,17.19
2019-03-30T18:02:11.403Z,17.14
2019-03-30T18:04:42.734Z,17.08
2019-03-30T18:07:14.120Z,17.06
2019-03-30T18:09:45.283Z,16.99
2019-03-30T18:12:16.612Z,17.01
2019-03-30T18:14:49.878Z,16.94
2019-03-30T18:17:21.097Z,16.92
2019-03-30T18:19:52.345Z,16.87
2019-03-30T18:22:23.547Z,16.80
2019-03-30T18:24:54.858Z,16.70
2019-03-30T18:27:26.166Z,16.58
2019-03-30T18:29:57.244Z,16.49
2019-03-30T18:32:28.419Z,16.41
2019-03-30T18:35:00.654Z,16.34
2019-03-30T18:37:33.852Z,16.20
2019-03-30T18:40:06.780Z,16.13
2019-03-30T18:42:40.064Z,16.04
2019-03-30T18:45:25.193Z,15.94
2019-03-30T18:48:10.274Z,15.86
2019-03-30T18:50:42.224Z,15.77
2019-03-30T18:53:13.825Z,15.70
2019-03-30T18:55:45.215Z,15.64
2019-03-30T18:58:16.479Z,15.57
2019-03-30T19:00:47.702Z,15.47
2019-03-30T19:03:20.208Z,15.38
2019-03-30T19:05:52.252Z,15.32
2019-03-30T19:08:23.484Z,15.28
2019-03-30T19:10:54.750Z,15.19
2019-03-30T19:13:26.126Z,15.09
2019-03-30T19:15:57.293Z,15.00
2019-03-30T19:18:28.773Z,14.90
2019-03-30T19:21:04.076Z,14.86
2019-03-30T19:23:35.315Z,14.74
2019-03-30T19:26:06.661Z,14.72
2019-03-30T19:28:37.889Z,14.63
2019-03-30T19:31:09.123Z,14.59
2019-03-30T19:33:40.314Z,14.53
2019-03-30T19:36:12.786Z,14.53
2019-03-30T19:38:44.041Z,14.48
2019-03-30T19:41:16.264Z,14.46
2019-03-30T19:43:47.601Z,14.36
2019-03-30T19:46:18.849Z,14.27
2019-03-30T19:48:50.100Z,14.24
2019-03-30T19:51:32.589Z,14.27
2019-03-30T19:54:03.858Z,14.19
2019-03-30T19:56:35.373Z,14.14
2019-03-30T19:59:10.931Z,14.11
2019-03-30T20:01:40.128Z,14.11
2019-03-30T20:04:12.763Z,14.14
2019-03-30T20:06:44.048Z,14.12
2019-03-30T20:09:15.521Z,14.08
2019-03-30T20:11:47.293Z,14.11
2019-03-30T20:14:18.549Z,14.11
2019-03-30T20:16:49.852Z,14.14
2019-03-30T20:19:28.055Z,14.15
2019-03-30T20:22:03.081Z,14.12
2019-03-30T20:24:34.394Z,14.10
2019-03-30T20:27:06.891Z,14.11
2019-03-30T20:29:39.116Z,14.16
2019-03-30T20:32:10.491Z,14.12
2019-03-30T20:34:48.534Z,14.07
2019-03-30T20:37:22.322Z,14.08
2019-03-30T20:39:59.712Z,14.07
2019-03-30T20:42:38.184Z,14.08
2019-03-30T20:45:09.856Z,13.99
2019-03-30T20:47:44.877Z,13.95
2019-03-30T20:50:18.133Z,13.93
2019-03-30T20:52:49.673Z,13.90
2019-03-30T20:55:22.049Z,13.97
2019-03-30T20:57:59.717Z,13.94
2019-03-30T21:00:30.969Z,13.91
2019-03-30T21:03:03.317Z,13.97
2019-03-30T21:05:34.712Z,13.98
2019-03-30T21:08:07.848Z,14.02
2019-03-30T21:10:39.140Z,14.04
2019-03-30T21:13:11.277Z,14.10
2019-03-30T21:15:44.505Z,14.18
2019-03-30T21:18:17.659Z,14.21
2019-03-30T21:20:49.138Z,14.26
2019-03-30T21:23:28.331Z,14.28
2019-03-30T21:25:59.629Z,14.34
2019-03-30T21:28:32.886Z,14.36
2019-03-30T21:31:04.129Z,14.36
2019-03-30T21:33:48.428Z,14.37
2019-03-30T21:36:20.846Z,14.31
2019-03-30T21:38:52.038Z,14.28
2019-03-30T21:41:25.228Z,14.29
2019-03-30T21:43:57.365Z,14.25
2019-03-30T21:46:28.542Z,14.26
2019-03-30T21:49:01.767Z,14.18
2019-03-30T21:51:33.059Z,14.14
2019-03-30T21:54:05.316Z,14.11
2019-03-30T21:56:36.525Z,14.07
2019-03-30T21:59:07.758Z,14.01
2019-03-30T22:01:39.018Z,13.95
2019-03-30T22:04:10.205Z,13.96
2019-03-30T22:06:41.415Z,13.96
2019-03-30T22:09:12.674Z,13.91
2019-03-30T22:11:43.920Z,13.91
2019-03-30T22:14:15.963Z,13.93
2019-03-30T22:16:47.203Z,13.86
2019-03-30T22:19:18.487Z,13.82
2019-03-30T22:21:56.166Z,13.82
2019-03-30T22:24:27.653Z,13.81
2019-03-30T22:26:58.814Z,13.75
2019-03-30T22:29:36.812Z,13.76
2019-03-30T22:32:07.987Z,13.74
2019-03-30T22:34:39.131Z,13.71
2019-03-30T22:37:11.038Z,13.67
2019-03-30T22:39:42.374Z,13.65
2019-03-30T22:42:13.742Z,13.61
2019-03-30T22:44:44.912Z,13.61
2019-03-30T22:47:16.155Z,13.56
2019-03-30T22:49:47.455Z,13.58
2019-03-30T22:52:20.355Z,13.55
2019-03-30T22:54:51.435Z,13.50
2019-03-30T22:57:38.772Z,13.36
2019-03-30T23:00:39.039Z,13.29
2019-03-30T23:03:12.126Z,13.31
2019-03-30T23:05:43.542Z,13.34
2019-03-30T23:08:14.773Z,13.30
2019-03-30T23:10:46.813Z,13.21
2019-03-30T23:13:20.678Z,13.22
2019-03-30T23:15:57.825Z,13.16
2019-03-30T23:18:31.146Z,13.06
2019-03-30T23:21:02.772Z,12.97
2019-03-30T23:23:39.970Z,12.94
2019-03-30T23:26:11.554Z,12.87
2019-03-30T23:28:43.072Z,12.79
2019-03-30T23:31:23.090Z,12.69
2019-03-30T23:33:56.130Z,12.66
2019-03-30T23:36:29.513Z,12.65
2019-03-30T23:39:00.882Z,12.56
2019-03-30T23:41:33.443Z,12.52
2019-03-30T23:44:05.228Z,12.51
2019-03-30T23:46:36.453Z,12.47
2019-03-30T23:49:07.902Z,12.39
2019-03-30T23:51:39.925Z,12.33
2019-03-30T23:54:15.531Z,12.27
2019-03-30T23:56:47.206Z,12.21
2019-03-30T23:59:20.224Z,12.03
